createdAt,value
2023-01-22T00:01:30.050Z,32.75
2023-01-22T00:03:58.030Z,35.78
2023-01-22T00:06:25.681Z,34.88
2023-01-22T00:08:53.428Z,36.45
2023-01-22T00:11:22.259Z,35.97
2023-01-22T00:13:49.705Z,35.47
2023-01-22T00:16:18.328Z,37.85
2023-01-22T00:18:45.931Z,37.30
2023-01-22T00:21:13.806Z,37.97
2023-01-22T00:23:41.303Z,39.28
2023-01-22T00:26:12.460Z,37.85
2023-01-22T00:28:41.795Z,37.67
2023-01-22T00:31:11.363Z,36.33
2023-01-22T00:33:39.960Z,39.05
2023-01-22T00:36:09.336Z,37.47
2023-01-22T00:38:36.929Z,38.15
2023-01-22T00:41:06.511Z,38.10
2023-01-22T00:43:38.694Z,37.80
2023-01-22T00:46:07.515Z,36.70
2023-01-22T00:48:35.456Z,37.55
2023-01-22T00:51:03.130Z,37.67
2023-01-22T00:53:30.757Z,35.97
2023-01-22T00:56:00.642Z,35.17
2023-01-22T00:58:28.918Z,36.63
2023-01-22T01:00:56.537Z,34.83
2023-01-22T01:03:33.205Z,37.17
2023-01-22T01:06:05.484Z,36.83
2023-01-22T01:08:35.973Z,35.63
2023-01-22T01:11:06.594Z,36.05
2023-01-22T01:13:42.171Z,36.60
2023-01-22T01:16:14.204Z,37.17
2023-01-22T01:18:41.966Z,36.22
2023-01-22T01:21:10.288Z,38.55
2023-01-22T01:23:38.344Z,37.05
2023-01-22T01:26:11.198Z,35.90
2023-01-22T01:28:40.030Z,34.97
2023-01-22T01:31:10.996Z,35.28
2023-01-22T01:33:38.511Z,35.25
2023-01-22T01:36:09.866Z,35.17
2023-01-22T01:38:37.613Z,34.75
2023-01-22T01:41:05.678Z,31.20
2023-01-22T01:43:34.388Z,35.00
2023-01-22T01:46:04.811Z,33.63
2023-01-22T01:48:35.738Z,32.88
2023-01-22T01:51:11.543Z,31.58
2023-01-22T01:53:40.971Z,30.73
2023-01-22T01:56:12.990Z,30.92
2023-01-22T01:58:42.553Z,31.38
2023-01-22T02:01:14.099Z,29.65
2023-01-22T02:03:42.522Z,28.70
2023-01-22T02:06:12.442Z,29.70
2023-01-22T02:08:41.500Z,29.70
2023-01-22T02:11:10.309Z,31.58
2023-01-22T02:13:40.953Z,28.67
2023-01-22T02:16:10.498Z,30.45
2023-01-22T02:18:38.149Z,28.88
2023-01-22T02:21:28.170Z,29.05
2023-01-22T02:38:07.821Z,33.35
2023-01-22T02:40:35.607Z,33.70
2023-01-22T02:43:02.903Z,32.70
2023-01-22T02:45:30.262Z,35.10
2023-01-22T02:47:57.566Z,34.22
2023-01-22T02:50:24.858Z,32.05
2023-01-22T02:52:52.157Z,33.63
2023-01-22T02:55:19.582Z,32.88
2023-01-22T02:57:46.994Z,35.35
2023-01-22T03:00:14.919Z,33.53
2023-01-22T03:02:42.382Z,31.40
2023-01-22T03:05:09.735Z,30.00
2023-01-22T03:07:44.878Z,32.45
2023-01-22T03:10:15.237Z,32.15
2023-01-22T03:13:01.842Z,32.20
2023-01-22T03:15:48.019Z,33.13
2023-01-22T03:18:34.714Z,30.25
2023-01-22T03:21:17.372Z,31.13
2023-01-22T03:23:50.548Z,33.67
2023-01-22T03:26:18.945Z,32.17
2023-01-22T03:28:46.317Z,31.10
2023-01-22T03:31:14.724Z,35.00
2023-01-22T03:33:42.526Z,30.75
2023-01-22T03:36:13.922Z,29.60
2023-01-22T03:38:41.406Z,32.38
2023-01-22T03:41:14.616Z,33.63
2023-01-22T03:43:42.229Z,34.30
2023-01-22T03:46:16.812Z,35.05
2023-01-22T03:48:45.065Z,36.15
2023-01-22T03:51:15.117Z,37.35
2023-01-22T03:53:44.005Z,36.38
2023-01-22T03:56:20.136Z,35.90
2023-01-22T03:58:48.560Z,38.40
2023-01-22T04:01:18.909Z,37.40
2023-01-22T04:03:46.375Z,39.15
2023-01-22T04:06:14.250Z,40.25
2023-01-22T04:08:44.060Z,38.95
2023-01-22T04:11:12.501Z,39.58
2023-01-22T04:13:41.677Z,37.83
2023-01-22T04:16:11.016Z,39.35
2023-01-22T04:18:38.685Z,38.72
2023-01-22T04:21:05.956Z,43.38
2023-01-22T04:23:33.995Z,40.40
2023-01-22T04:26:01.415Z,42.42
2023-01-22T04:28:28.742Z,40.35
2023-01-22T04:30:56.521Z,43.63
2023-01-22T04:33:23.960Z,41.88
2023-01-22T04:35:52.849Z,45.65
2023-01-22T04:38:20.222Z,42.90
2023-01-22T04:40:47.573Z,45.47
2023-01-22T04:43:14.941Z,43.85
2023-01-22T04:45:42.238Z,45.92
2023-01-22T04:48:11.183Z,46.95
2023-01-22T04:50:38.504Z,46.28
2023-01-22T04:53:05.983Z,45.60
2023-01-22T04:55:33.733Z,44.65
2023-01-22T04:58:02.244Z,44.67
2023-01-22T05:00:30.963Z,45.50
2023-01-22T05:03:03.283Z,44.25
2023-01-22T05:05:32.095Z,47.13
2023-01-22T05:08:00.356Z,48.05
2023-01-22T05:10:27.681Z,45.20
2023-01-22T05:12:55.069Z,48.00
2023-01-22T05:15:25.018Z,48.65
2023-01-22T05:17:53.504Z,46.80
2023-01-22T05:20:21.744Z,46.40
2023-01-22T05:22:49.538Z,48.95
2023-01-22T05:25:17.063Z,44.10
2023-01-22T05:27:44.442Z,45.83
2023-01-22T05:30:13.252Z,43.00
2023-01-22T05:32:40.757Z,44.03
2023-01-22T05:35:08.722Z,43.92
2023-01-22T05:37:35.980Z,44.92
2023-01-22T05:40:05.419Z,43.65
2023-01-22T05:42:32.775Z,43.38
2023-01-22T05:45:00.298Z,40.63
2023-01-22T05:47:27.565Z,43.70
2023-01-22T05:49:54.849Z,44.50
2023-01-22T05:52:22.238Z,42.72
2023-01-22T05:54:49.614Z,42.63
2023-01-22T05:57:17.066Z,41.03
2023-01-22T05:59:44.406Z,39.53
2023-01-22T06:02:11.704Z,38.30
2023-01-22T06:04:39.477Z,39.75
2023-01-22T06:07:06.762Z,41.30
2023-01-22T06:09:34.278Z,41.03
2023-01-22T06:12:01.549Z,42.47
2023-01-22T06:14:28.803Z,42.05
2023-01-22T06:16:56.080Z,43.53
2023-01-22T06:19:23.403Z,43.63
2023-01-22T06:21:50.917Z,39.28
2023-01-22T06:24:18.311Z,44.13
2023-01-22T06:26:46.091Z,42.05
2023-01-22T06:29:13.385Z,47.10
2023-01-22T06:31:40.844Z,43.50
2023-01-22T06:34:09.811Z,40.22
2023-01-22T06:36:37.254Z,44.00
2023-01-22T06:39:05.006Z,41.17
2023-01-22T06:41:32.320Z,43.80
2023-01-22T06:43:59.772Z,40.67
2023-01-22T06:46:27.179Z,39.47
2023-01-22T06:48:54.673Z,44.05
2023-01-22T06:51:22.080Z,40.85
2023-01-22T06:53:49.389Z,38.00
2023-01-22T06:56:16.773Z,42.40
2023-01-22T06:58:44.056Z,38.95
2023-01-22T07:01:11.358Z,38.45
2023-01-22T07:03:38.773Z,38.50
2023-01-22T07:06:08.297Z,38.30
2023-01-22T07:08:36.014Z,36.80
2023-01-22T07:11:05.164Z,39.65
2023-01-22T07:13:33.695Z,37.95
2023-01-22T07:16:05.891Z,35.40
2023-01-22T07:18:33.291Z,36.38
2023-01-22T07:21:05.526Z,36.53
2023-01-22T07:23:33.320Z,40.10
2023-01-22T07:26:00.667Z,39.03
2023-01-22T07:28:28.081Z,38.55
2023-01-22T07:30:57.018Z,37.85
2023-01-22T07:33:24.521Z,37.50
2023-01-22T07:35:58.443Z,37.80
2023-01-22T07:38:29.500Z,35.08
2023-01-22T07:41:11.465Z,34.75
2023-01-22T07:43:49.473Z,34.53
2023-01-22T07:46:17.212Z,32.92
2023-01-22T07:48:45.991Z,35.65
2023-01-22T07:51:13.380Z,32.92
2023-01-22T07:53:41.956Z,35.05
2023-01-22T07:56:09.356Z,34.65
2023-01-22T07:58:36.679Z,34.92
2023-01-22T08:01:07.558Z,33.08
2023-01-22T08:03:35.320Z,36.30
2023-01-22T08:06:12.007Z,35.60
2023-01-22T08:08:39.454Z,36.58
2023-01-22T08:11:06.760Z,35.22
2023-01-22T08:13:34.254Z,37.53
2023-01-22T08:16:02.904Z,38.38
2023-01-22T08:18:30.262Z,38.70
2023-01-22T08:21:01.119Z,36.20
2023-01-22T08:23:28.881Z,36.60
2023-01-22T08:26:04.153Z,36.25
2023-01-22T08:28:31.744Z,37.25
2023-01-22T08:31:01.082Z,35.38
2023-01-22T08:33:30.901Z,35.15
2023-01-22T08:35:58.220Z,33.65
2023-01-22T08:38:25.533Z,36.10
2023-01-22T08:40:53.389Z,33.28
2023-01-22T08:43:20.674Z,40.63
2023-01-22T08:45:49.688Z,42.42
2023-01-22T08:48:18.149Z,39.58
2023-01-22T08:50:45.506Z,41.22
2023-01-22T08:53:12.846Z,37.70
2023-01-22T08:55:40.254Z,40.15
2023-01-22T08:58:08.003Z,37.03
2023-01-22T09:00:35.364Z,35.03
2023-01-22T09:03:02.695Z,38.00
2023-01-22T09:05:30.147Z,38.25
2023-01-22T09:07:57.581Z,38.80
2023-01-22T09:10:25.290Z,38.53
2023-01-22T09:12:52.821Z,40.17
2023-01-22T09:15:20.148Z,46.88
2023-01-22T09:17:47.503Z,40.95
2023-01-22T09:20:15.134Z,45.13
2023-01-22T09:22:45.625Z,42.08
2023-01-22T09:25:13.159Z,41.65
2023-01-22T09:27:40.567Z,42.80
2023-01-22T09:30:09.635Z,42.10
2023-01-22T09:32:37.532Z,42.72
2023-01-22T09:35:05.177Z,41.10
2023-01-22T09:37:32.704Z,49.20
2023-01-22T09:40:00.484Z,58.25
2023-01-22T09:42:34.036Z,45.80
2023-01-22T09:45:07.327Z,44.83
2023-01-22T09:47:40.440Z,46.55
2023-01-22T09:50:21.748Z,45.20
2023-01-22T09:52:51.850Z,48.83
2023-01-22T09:55:22.888Z,43.10
2023-01-22T09:57:53.787Z,43.67
2023-01-22T10:00:27.238Z,46.47
2023-01-22T10:03:03.633Z,44.10
2023-01-22T10:08:21.524Z,44.33
2023-01-22T10:10:50.947Z,42.40
2023-01-22T10:13:23.821Z,45.03
2023-01-22T10:15:53.949Z,45.15
2023-01-22T10:19:02.703Z,44.17
2023-01-22T10:21:32.926Z,44.67
2023-01-22T10:24:00.766Z,43.92
2023-01-22T10:26:28.062Z,45.20
2023-01-22T10:28:59.222Z,43.08
2023-01-22T10:31:33.242Z,45.55
2023-01-22T10:34:03.716Z,45.40
2023-01-22T10:36:31.961Z,44.03
2023-01-22T10:39:04.730Z,43.90
2023-01-22T10:41:32.341Z,41.90
2023-01-22T10:44:25.421Z,45.90
2023-01-22T10:46:54.498Z,44.83
2023-01-22T10:49:24.819Z,46.20
2023-01-22T10:51:57.461Z,50.20
2023-01-22T10:54:41.650Z,49.50
2023-01-22T10:57:36.658Z,44.40
2023-01-22T11:00:46.709Z,47.35
2023-01-22T11:03:23.780Z,48.42
2023-01-22T11:06:00.169Z,48.40
2023-01-22T11:11:08.531Z,48.78
2023-01-22T11:13:56.588Z,44.60
2023-01-22T11:16:25.931Z,44.35
2023-01-22T11:18:53.206Z,43.28
2023-01-22T11:21:25.877Z,38.00
2023-01-22T11:24:12.282Z,38.97
2023-01-22T11:27:03.355Z,38.53
2023-01-22T11:29:45.715Z,39.22
2023-01-22T11:32:27.946Z,45.45
2023-01-22T11:35:01.813Z,40.45
2023-01-22T11:37:59.614Z,38.25
2023-01-22T11:40:33.234Z,36.03
2023-01-22T11:43:34.483Z,39.28
2023-01-22T11:46:10.036Z,39.67
2023-01-22T11:49:05.022Z,37.20
2023-01-22T11:52:10.687Z,33.10
2023-01-22T11:54:44.133Z,34.20
2023-01-22T11:57:30.960Z,31.95
2023-01-22T12:03:10.800Z,30.13
2023-01-22T12:05:40.956Z,33.53
2023-01-22T12:08:35.199Z,32.15
2023-01-22T12:11:27.564Z,34.78
2023-01-22T12:14:00.959Z,34.08
2023-01-22T12:17:05.699Z,28.38
2023-01-22T12:19:51.234Z,30.95
2023-01-22T12:22:27.496Z,30.55
2023-01-22T12:25:19.885Z,26.92
2023-01-22T12:28:14.174Z,25.85
2023-01-22T12:30:56.633Z,26.60
2023-01-22T12:33:27.880Z,30.10
2023-01-22T12:36:00.687Z,24.17
2023-01-22T12:38:32.683Z,22.77
2023-01-22T12:41:05.201Z,23.50
2023-01-22T12:43:43.516Z,24.77
2023-01-22T12:46:33.165Z,21.90
2023-01-22T12:49:00.502Z,21.75
2023-01-22T12:51:37.493Z,24.50
2023-01-22T12:54:27.629Z,19.92
2023-01-22T12:57:09.284Z,20.60
2023-01-22T12:59:36.600Z,21.15
2023-01-22T13:02:27.147Z,21.10
2023-01-22T13:04:55.202Z,20.50
2023-01-22T13:07:31.700Z,21.30
2023-01-22T13:10:04.726Z,21.20
2023-01-22T13:12:45.743Z,21.00
2023-01-22T13:15:26.935Z,21.90
2023-01-22T13:18:18.621Z,20.90
2023-01-22T13:21:04.893Z,20.10
2023-01-22T13:23:34.965Z,20.08
2023-01-22T13:26:04.211Z,18.25
2023-01-22T13:28:32.000Z,18.15
2023-01-22T13:31:05.628Z,18.25
2023-01-22T13:33:33.062Z,20.98
2023-01-22T13:36:10.810Z,22.02
2023-01-22T13:38:38.676Z,18.38
2023-01-22T13:41:10.355Z,18.23
2023-01-22T13:43:39.322Z,16.88
2023-01-22T13:46:07.307Z,16.27
2023-01-22T13:48:34.804Z,17.17
2023-01-22T13:51:22.439Z,17.08
2023-01-22T13:53:54.708Z,10.55
2023-01-22T13:56:26.718Z,6.82
2023-01-22T13:59:23.561Z,4.95
2023-01-22T14:01:51.940Z,4.10
2023-01-22T14:04:28.522Z,4.38
2023-01-22T14:06:56.227Z,4.78
2023-01-22T14:09:29.655Z,6.07
2023-01-22T14:12:00.994Z,6.63
2023-01-22T14:14:40.067Z,7.30
2023-01-22T14:17:07.935Z,7.47
2023-01-22T14:19:35.258Z,7.90
2023-01-22T14:22:02.615Z,8.10
2023-01-22T14:24:30.571Z,7.30
2023-01-22T14:26:58.249Z,7.70
2023-01-22T14:29:25.599Z,7.80
2023-01-22T14:31:52.972Z,6.55
2023-01-22T14:34:20.485Z,7.00
2023-01-22T14:36:49.432Z,7.55
2023-01-22T14:39:16.808Z,6.55
2023-01-22T14:41:44.209Z,7.40
2023-01-22T14:44:11.736Z,7.18
2023-01-22T14:46:39.317Z,7.07
2023-01-22T14:49:06.765Z,6.30
2023-01-22T14:51:34.047Z,5.85
2023-01-22T14:54:01.425Z,5.38
2023-01-22T14:56:28.763Z,4.38
2023-01-22T14:58:56.282Z,3.28
2023-01-22T15:01:24.014Z,4.00
2023-01-22T15:03:52.395Z,4.38
2023-01-22T15:06:21.281Z,4.60
2023-01-22T15:08:48.587Z,3.85
2023-01-22T15:11:15.971Z,4.35
2023-01-22T15:13:43.295Z,4.88
2023-01-22T15:16:11.942Z,4.45
2023-01-22T15:18:39.915Z,4.30
2023-01-22T15:21:08.117Z,4.82
2023-01-22T15:23:35.836Z,5.13
2023-01-22T15:26:08.158Z,5.05
2023-01-22T15:28:35.937Z,5.15
2023-01-22T15:31:08.073Z,5.18
2023-01-22T15:33:36.669Z,5.50
2023-01-22T15:36:05.050Z,5.05
2023-01-22T15:38:32.392Z,4.80
2023-01-22T15:41:07.852Z,5.43
2023-01-22T15:43:35.204Z,5.80
2023-01-22T15:46:02.653Z,4.95
2023-01-22T15:48:29.938Z,6.97
2023-01-22T15:51:09.889Z,6.55
2023-01-22T15:53:38.789Z,6.22
2023-01-22T15:56:06.586Z,5.93
2023-01-22T15:58:34.639Z,5.68
2023-01-22T16:01:02.285Z,7.78
2023-01-22T16:03:29.847Z,8.35
2023-01-22T16:06:17.826Z,7.68
2023-01-22T16:08:47.121Z,8.45
2023-01-22T16:11:16.043Z,8.90
2023-01-22T16:13:43.788Z,7.43
2023-01-22T16:16:19.541Z,7.07
2023-01-22T16:18:48.125Z,6.82
2023-01-22T16:21:16.700Z,7.10
2023-01-22T16:23:46.214Z,6.95
2023-01-22T16:26:16.698Z,7.30
2023-01-22T16:28:45.698Z,6.72
2023-01-22T16:31:16.456Z,6.53
2023-01-22T16:33:46.361Z,5.80
2023-01-22T16:36:16.305Z,5.88
2023-01-22T16:38:44.207Z,7.10
2023-01-22T16:41:32.568Z,6.72
2023-01-22T16:44:11.803Z,6.85
2023-01-22T16:46:42.491Z,7.68
2023-01-22T16:49:16.065Z,7.25
2023-01-22T16:51:46.800Z,8.30
2023-01-22T16:54:23.493Z,7.45
2023-01-22T16:56:51.295Z,8.07
2023-01-22T16:59:18.859Z,7.00
2023-01-22T17:01:46.710Z,8.40
2023-01-22T17:04:14.352Z,8.38
2023-01-22T17:06:50.462Z,7.82
2023-01-22T17:09:23.464Z,8.27
2023-01-22T17:11:56.667Z,7.22
2023-01-22T17:14:27.258Z,8.45
2023-01-22T17:16:54.710Z,8.10
2023-01-22T17:19:22.322Z,7.78
2023-01-22T17:21:52.177Z,8.27
2023-01-22T17:24:19.549Z,7.70
2023-01-22T17:26:48.132Z,7.63
2023-01-22T17:29:16.133Z,7.97
2023-01-22T17:31:43.754Z,8.52
2023-01-22T17:34:11.762Z,8.50
2023-01-22T17:36:40.531Z,7.88
2023-01-22T17:39:13.738Z,8.40
2023-01-22T17:41:41.122Z,7.80
2023-01-22T17:44:09.040Z,8.32
2023-01-22T17:46:36.868Z,8.50
2023-01-22T17:49:04.917Z,7.82
2023-01-22T17:51:34.755Z,8.73
2023-01-22T17:54:03.588Z,9.30
2023-01-22T17:56:40.258Z,8.82
2023-01-22T17:59:07.767Z,7.20
2023-01-22T18:01:36.857Z,7.82
2023-01-22T18:04:08.168Z,8.68
2023-01-22T18:06:36.784Z,10.02
2023-01-22T18:09:05.705Z,8.75
2023-01-22T18:11:34.108Z,8.85
2023-01-22T18:14:07.459Z,10.07
2023-01-22T18:16:36.879Z,8.85
2023-01-22T18:19:07.162Z,9.13
2023-01-22T18:21:36.183Z,8.32
2023-01-22T18:24:06.105Z,7.97
2023-01-22T18:26:34.270Z,8.10
2023-01-22T18:29:02.358Z,8.35
2023-01-22T18:31:30.438Z,8.65
2023-01-22T18:34:01.409Z,9.75
2023-01-22T18:36:31.430Z,10.05
2023-01-22T18:39:00.969Z,10.55
2023-01-22T18:41:28.560Z,11.52
2023-01-22T18:43:58.434Z,11.55
2023-01-22T18:46:28.912Z,12.02
2023-01-22T18:49:01.268Z,13.18
2023-01-22T18:51:29.608Z,12.50
2023-01-22T18:53:57.574Z,14.75
2023-01-22T18:56:25.718Z,17.17
2023-01-22T18:58:57.499Z,16.45
2023-01-22T19:01:33.860Z,18.38
2023-01-22T19:04:04.627Z,18.20
2023-01-22T19:06:36.984Z,17.63
2023-01-22T19:09:12.269Z,16.63
2023-01-22T19:11:42.393Z,15.80
2023-01-22T19:14:13.101Z,16.27
2023-01-22T19:16:43.093Z,15.82
2023-01-22T19:19:13.539Z,16.27
2023-01-22T19:21:47.132Z,18.02
2023-01-22T19:24:19.393Z,19.13
2023-01-22T19:26:47.124Z,20.95
2023-01-22T19:29:17.596Z,19.25
2023-01-22T19:31:48.038Z,18.42
2023-01-22T19:34:23.285Z,16.48
2023-01-22T19:36:53.350Z,15.30
2023-01-22T19:39:21.147Z,13.57
2023-01-22T19:41:49.273Z,13.35
2023-01-22T19:44:16.803Z,13.18
2023-01-22T19:46:44.320Z,10.90
2023-01-22T19:49:13.056Z,10.80
2023-01-22T19:51:40.428Z,15.80
2023-01-22T19:54:08.898Z,16.33
2023-01-22T19:56:37.615Z,15.27
2023-01-22T19:59:08.499Z,14.95
2023-01-22T20:01:36.955Z,12.68
2023-01-22T20:04:08.868Z,10.85
2023-01-22T20:06:36.254Z,12.00
2023-01-22T20:09:03.956Z,12.13
2023-01-22T20:11:31.733Z,13.15
2023-01-22T20:13:59.086Z,13.20
2023-01-22T20:16:28.885Z,13.05
2023-01-22T20:18:57.930Z,13.30
2023-01-22T20:21:27.217Z,13.40
2023-01-22T20:23:54.887Z,14.35
2023-01-22T20:26:22.699Z,14.38
2023-01-22T20:28:50.727Z,13.98
2023-01-22T20:31:23.189Z,14.38
2023-01-22T20:33:52.780Z,13.90
2023-01-22T20:36:21.205Z,13.50
2023-01-22T20:38:52.689Z,13.30
2023-01-22T20:41:22.216Z,14.25
2023-01-22T20:43:50.018Z,13.00
2023-01-22T20:46:23.360Z,14.00
2023-01-22T20:48:52.011Z,13.40
2023-01-22T20:51:22.941Z,13.98
2023-01-22T20:53:52.037Z,13.63
2023-01-22T20:56:27.312Z,13.32
2023-01-22T20:59:01.190Z,15.52
2023-01-22T21:01:29.511Z,16.17
2023-01-22T21:03:58.512Z,18.58
2023-01-22T21:06:29.664Z,17.10
2023-01-22T21:08:57.608Z,16.88
2023-01-22T21:11:25.954Z,17.50
2023-01-22T21:13:56.607Z,18.30
2023-01-22T21:16:27.435Z,20.27
2023-01-22T21:19:06.521Z,21.00
2023-01-22T21:21:37.088Z,19.05
2023-01-22T21:24:04.868Z,17.98
2023-01-22T21:26:33.273Z,17.40
2023-01-22T21:29:03.679Z,17.20
2023-01-22T21:31:31.571Z,15.30
2023-01-22T21:34:04.190Z,15.90
2023-01-22T21:36:41.421Z,15.45
2023-01-22T21:39:14.224Z,14.43
2023-01-22T21:41:43.369Z,15.48
2023-01-22T21:44:35.439Z,16.23
2023-01-22T21:47:03.137Z,15.50
2023-01-22T21:49:30.999Z,13.68
2023-01-22T21:52:09.595Z,16.20
2023-01-22T21:54:39.174Z,16.65
2023-01-22T21:57:07.927Z,16.13
2023-01-22T21:59:36.903Z,16.27
2023-01-22T22:02:05.719Z,15.10
2023-01-22T22:04:33.911Z,15.75
2023-01-22T22:07:01.484Z,15.15
2023-01-22T22:09:31.124Z,16.38
2023-01-22T22:12:00.186Z,17.42
2023-01-22T22:14:27.810Z,18.48
2023-01-22T22:16:55.687Z,18.02
2023-01-22T22:19:24.388Z,21.20
2023-01-22T22:21:52.771Z,21.42
2023-01-22T22:24:21.629Z,20.58
2023-01-22T22:26:48.994Z,22.05
2023-01-22T22:29:16.366Z,19.80
2023-01-22T22:31:43.792Z,19.90
2023-01-22T22:34:11.278Z,20.25
2023-01-22T22:36:38.834Z,19.30
2023-01-22T22:39:06.694Z,19.55
2023-01-22T22:41:37.114Z,20.55
2023-01-22T22:44:06.013Z,20.77
2023-01-22T22:46:35.683Z,18.63
2023-01-22T22:49:04.171Z,18.98
2023-01-22T22:51:34.182Z,18.50
2023-01-22T22:54:16.915Z,18.27
2023-01-22T22:56:48.823Z,18.98
2023-01-22T22:59:18.644Z,18.42
2023-01-22T23:01:46.030Z,17.80
2023-01-22T23:04:13.830Z,20.58
2023-01-22T23:06:44.152Z,18.10
2023-01-22T23:09:14.036Z,18.60
2023-01-22T23:11:41.859Z,18.10
2023-01-22T23:14:10.071Z,19.38
2023-01-22T23:16:40.489Z,20.02
2023-01-22T23:19:13.499Z,20.00
2023-01-22T23:21:41.753Z,20.08
2023-01-22T23:24:11.602Z,19.95
2023-01-22T23:26:40.701Z,18.45
2023-01-22T23:29:10.491Z,18.85
2023-01-22T23:31:39.436Z,19.98
2023-01-22T23:34:12.718Z,18.48
2023-01-22T23:36:45.438Z,19.50
2023-01-22T23:39:14.927Z,20.08
2023-01-22T23:41:42.973Z,19.95
2023-01-22T23:44:10.575Z,21.17
2023-01-22T23:46:38.865Z,20.08
2023-01-22T23:49:06.356Z,23.80
2023-01-22T23:51:33.922Z,24.10
2023-01-22T23:54:01.329Z,25.65
2023-01-22T23:56:31.972Z,25.33
2023-01-22T23:59:00.152Z,27.92
